Time;durP1;ratioP1;P1;durP2;ratioP2;P2;SDS_P1;SDS_P2;PMS_P1;PMS_P2;Temp;Humidity;BMP_temperature;BMP_pressure;BME280_temperature;BME280_humidity;BME280_pressure;Samples;Min_cycle;Max_cycle;Signal;HPM_P1;HPM_P2
2022/08/29 00:00:45;;;;;;;13.57;7.90;;;20.70;99.90;;;;;;4993793;28;20204;-74
2022/08/29 00:03:12;;;;;;;17.10;7.10;;;20.70;99.90;;;;;;4991511;28;20303;-74
2022/08/29 00:05:39;;;;;;;10.57;6.53;;;20.70;99.90;;;;;;4993760;28;20209;-74
2022/08/29 00:08:06;;;;;;;12.10;6.30;;;20.80;99.90;;;;;;4992944;28;20218;-74
2022/08/29 00:10:36;;;;;;;10.47;5.70;;;20.80;99.90;;;;;;4992982;28;20227;-74
2022/08/29 00:13:04;;;;;;;9.57;5.87;;;20.80;99.90;;;;;;4985624;28;20237;-74
2022/08/29 00:15:31;;;;;;;11.83;5.57;;;20.80;99.90;;;;;;4989047;28;20212;-74
2022/08/29 00:17:58;;;;;;;11.47;5.63;;;20.90;99.90;;;;;;4991578;28;20298;-75
2022/08/29 00:20:28;;;;;;;9.40;5.43;;;20.90;99.90;;;;;;4993824;28;20289;-75
2022/08/29 00:22:55;;;;;;;12.70;6.40;;;21.00;99.90;;;;;;4992338;28;20255;-73
2022/08/29 00:25:23;;;;;;;9.57;5.70;;;21.00;99.90;;;;;;4993410;28;20268;-74
2022/08/29 00:27:51;;;;;;;10.73;5.30;;;21.10;99.90;;;;;;4993563;28;20214;-74
2022/08/29 00:30:20;;;;;;;8.90;5.30;;;21.10;99.90;;;;;;4992667;28;20277;-74
2022/08/29 00:32:47;;;;;;;8.57;5.10;;;21.10;99.90;;;;;;4989661;28;20211;-74
2022/08/29 00:35:17;;;;;;;8.13;5.00;;;21.10;99.90;;;;;;4986937;28;20204;-74
2022/08/29 00:37:44;;;;;;;10.27;5.43;;;21.20;99.90;;;;;;4985831;28;20237;-74
2022/08/29 00:40:14;;;;;;;12.60;6.00;;;21.20;99.90;;;;;;4992523;28;20294;-74
2022/08/29 00:42:42;;;;;;;9.67;5.80;;;21.20;99.90;;;;;;4991138;28;20304;-74
2022/08/29 00:45:13;;;;;;;11.60;6.10;;;21.20;99.90;;;;;;4992438;28;20213;-73
2022/08/29 00:47:45;;;;;;;10.97;6.57;;;21.20;99.90;;;;;;4990774;28;20326;-74
2022/08/29 00:50:22;;;;;;;10.10;6.30;;;21.20;99.90;;;;;;4992334;28;20243;-73
2022/08/29 00:52:49;;;;;;;10.97;6.43;;;21.20;99.90;;;;;;4992469;28;20191;-74
2022/08/29 00:55:21;;;;;;;12.17;6.40;;;21.10;99.90;;;;;;4992575;28;20298;-74
2022/08/29 00:57:52;;;;;;;11.40;6.27;;;21.10;99.90;;;;;;4990322;28;20211;-74
2022/08/29 01:00:20;;;;;;;9.83;6.07;;;21.10;99.90;;;;;;4972544;28;20251;-74
2022/08/29 01:02:48;;;;;;;10.90;6.23;;;21.10;99.90;;;;;;4972760;28;20552;-75
2022/08/29 01:05:19;;;;;;;10.97;6.70;;;21.10;99.90;;;;;;4974898;28;20313;-74
2022/08/29 01:07:46;;;;;;;9.87;5.90;;;21.10;99.90;;;;;;4991828;28;20214;-74
2022/08/29 01:12:14;;;;;;;9.40;5.80;;;21.10;99.90;;;;;;4991873;28;20259;-76
2022/08/29 01:13:02;;;;;;;10.30;5.40;;;21.20;99.90;;;;;;4992067;28;20195;-74
2022/08/29 01:15:31;;;;;;;10.17;6.40;;;21.10;99.90;;;;;;4989297;28;20654;-74
2022/08/29 01:17:59;;;;;;;11.67;5.57;;;21.10;99.90;;;;;;4992242;28;20214;-74
2022/08/29 01:20:34;;;;;;;10.47;6.10;;;21.10;99.90;;;;;;4991661;28;20626;-74
2022/08/29 01:23:07;;;;;;;8.40;5.43;;;21.10;99.90;;;;;;4992026;28;20195;-74
2022/08/29 01:25:39;;;;;;;11.67;6.10;;;21.10;99.90;;;;;;4990254;28;20247;-74
2022/08/29 01:28:10;;;;;;;10.90;5.87;;;21.10;99.90;;;;;;4989870;28;20295;-74
2022/08/29 01:30:55;;;;;;;10.53;6.10;;;21.10;99.90;;;;;;4991918;28;20219;-74
2022/08/29 01:33:22;;;;;;;13.53;5.93;;;21.10;99.90;;;;;;4992200;28;20263;-75
2022/08/29 01:35:49;;;;;;;8.83;5.37;;;21.10;99.90;;;;;;4990333;28;20292;-75
2022/08/29 01:38:26;;;;;;;11.80;6.47;;;21.10;99.90;;;;;;4990414;28;20257;-74
2022/08/29 01:40:55;;;;;;;17.43;6.60;;;21.10;99.90;;;;;;4991783;28;20227;-74
2022/08/29 01:43:22;;;;;;;10.30;5.70;;;21.00;99.90;;;;;;4992000;28;20660;-73
2022/08/29 01:45:49;;;;;;;11.00;5.93;;;21.00;99.90;;;;;;4991260;28;20211;-72
2022/08/29 01:48:16;;;;;;;9.40;6.20;;;21.00;99.90;;;;;;4991384;28;20239;-73
2022/08/29 01:50:43;;;;;;;12.47;6.20;;;21.00;99.90;;;;;;4991896;28;20321;-74
2022/08/29 01:53:10;;;;;;;11.87;5.60;;;21.00;99.90;;;;;;4991422;28;20302;-73
2022/08/29 01:55:38;;;;;;;13.03;6.20;;;21.00;99.90;;;;;;4990779;28;20214;-73
2022/08/29 01:58:07;;;;;;;12.93;6.47;;;21.00;99.90;;;;;;4990793;28;20203;-74
2022/08/29 02:00:34;;;;;;;9.23;5.97;;;20.90;99.90;;;;;;4986880;28;20207;-74
2022/08/29 02:03:02;;;;;;;11.13;6.47;;;20.90;99.90;;;;;;4986656;28;20451;-75
2022/08/29 02:05:29;;;;;;;9.70;6.00;;;20.90;99.90;;;;;;4991108;28;20211;-75
2022/08/29 02:07:57;;;;;;;10.33;6.03;;;20.90;99.90;;;;;;4991189;28;20294;-75
2022/08/29 02:10:24;;;;;;;11.23;5.60;;;20.90;99.90;;;;;;4990858;28;20323;-74
2022/08/29 02:12:51;;;;;;;12.67;6.10;;;20.90;99.90;;;;;;4989771;28;20298;-75
2022/08/29 02:15:19;;;;;;;14.20;6.83;;;20.90;99.90;;;;;;4991854;28;20711;-73
2022/08/29 02:17:47;;;;;;;10.77;6.27;;;20.90;99.90;;;;;;4991447;28;20299;-74
2022/08/29 02:20:13;;;;;;;10.33;5.80;;;20.80;99.90;;;;;;4991307;28;20216;-74
2022/08/29 02:22:41;;;;;;;14.10;6.20;;;20.80;99.90;;;;;;4988417;28;20294;-74
2022/08/29 02:27:51;;;;;;;12.57;6.33;;;20.70;99.90;;;;;;4989038;28;20663;-74
2022/08/29 02:30:19;;;;;;;16.20;6.77;;;20.70;99.90;;;;;;4992122;28;20718;-74
2022/08/29 02:32:47;;;;;;;11.00;6.63;;;20.60;99.90;;;;;;4988400;28;20607;-76
2022/08/29 02:35:14;;;;;;;14.93;7.13;;;20.60;99.90;;;;;;4982699;28;20705;-74
2022/08/29 02:37:41;;;;;;;12.50;6.90;;;20.60;99.90;;;;;;4985910;28;20226;-73
2022/08/29 02:40:09;;;;;;;13.93;6.77;;;20.50;99.90;;;;;;4985490;28;20280;-74
2022/08/29 02:42:37;;;;;;;12.97;6.97;;;20.50;99.90;;;;;;4983758;28;20319;-75
2022/08/29 02:45:04;;;;;;;12.77;6.63;;;20.50;99.90;;;;;;4990796;28;20209;-74
2022/08/29 02:47:35;;;;;;;10.80;6.97;;;20.50;99.90;;;;;;4990408;28;20231;-75
2022/08/29 02:50:04;;;;;;;11.37;6.27;;;20.40;99.90;;;;;;4987872;28;20211;-74
2022/08/29 02:52:31;;;;;;;13.80;6.10;;;20.40;99.90;;;;;;4985601;28;20296;-75
2022/08/29 02:54:58;;;;;;;11.23;6.70;;;20.40;99.90;;;;;;4989043;28;20630;-74
2022/08/29 02:57:25;;;;;;;11.13;7.20;;;20.30;99.90;;;;;;4990437;28;20294;-75
2022/08/29 02:59:52;;;;;;;10.57;6.43;;;20.30;99.90;;;;;;4985468;28;20685;-75
2022/08/29 03:02:19;;;;;;;13.67;6.70;;;20.30;99.90;;;;;;4985631;28;20294;-74
2022/08/29 03:04:47;;;;;;;16.57;7.77;;;20.20;99.90;;;;;;4990527;28;20208;-74
2022/08/29 03:07:14;;;;;;;15.63;7.67;;;20.20;99.90;;;;;;4990893;28;20721;-73
2022/08/29 03:09:41;;;;;;;15.03;7.00;;;20.10;99.90;;;;;;4987047;28;20236;-75
2022/08/29 03:12:08;;;;;;;16.03;8.43;;;20.00;99.90;;;;;;4983898;28;20245;-76
2022/08/29 03:14:35;;;;;;;15.30;7.77;;;20.00;99.90;;;;;;4990410;28;20207;-74
2022/08/29 03:17:02;;;;;;;19.47;8.43;;;20.00;99.90;;;;;;4990007;28;20294;-74
2022/08/29 03:19:28;;;;;;;18.53;9.13;;;20.00;99.90;;;;;;4985505;28;20303;-74
2022/08/29 03:21:57;;;;;;;20.23;8.20;;;19.90;99.90;;;;;;4988647;28;20302;-70
2022/08/29 03:24:24;;;;;;;13.57;7.80;;;19.90;99.90;;;;;;4989624;28;20629;-69
2022/08/29 03:26:50;;;;;;;14.17;7.50;;;19.90;99.90;;;;;;4989090;28;20208;-68
2022/08/29 03:29:17;;;;;;;20.27;7.87;;;19.90;99.90;;;;;;4988253;28;20311;-69
2022/08/29 03:31:45;;;;;;;15.23;7.33;;;19.80;99.90;;;;;;4989286;28;20302;-68
2022/08/29 03:34:13;;;;;;;15.13;7.07;;;19.80;99.90;;;;;;4989047;28;20223;-69
2022/08/29 03:36:40;;;;;;;15.80;8.47;;;19.80;99.90;;;;;;4989327;28;20232;-69
2022/08/29 03:39:09;;;;;;;16.20;7.93;;;19.80;99.90;;;;;;4987268;28;20315;-70
2022/08/29 03:41:36;;;;;;;14.80;7.27;;;19.70;99.90;;;;;;4983019;28;20716;-68
2022/08/29 03:44:03;;;;;;;16.03;7.57;;;19.70;99.90;;;;;;4983353;28;20620;-68
2022/08/29 03:46:30;;;;;;;14.90;7.37;;;19.70;99.90;;;;;;4989156;28;20299;-68
2022/08/29 03:48:57;;;;;;;12.83;7.73;;;19.70;99.90;;;;;;4987888;28;20308;-68
2022/08/29 03:51:24;;;;;;;16.53;7.50;;;19.80;99.90;;;;;;4989342;28;20227;-71
2022/08/29 03:53:51;;;;;;;14.83;7.17;;;19.80;99.90;;;;;;4988736;28;20255;-70
2022/08/29 03:56:19;;;;;;;13.03;6.30;;;19.80;99.90;;;;;;4986433;28;20208;-69
2022/08/29 03:58:47;;;;;;;18.80;7.43;;;19.80;99.90;;;;;;4987157;28;20265;-69
2022/08/29 04:01:15;;;;;;;17.50;7.00;;;19.80;99.90;;;;;;4988949;28;20204;-69
2022/08/29 04:03:42;;;;;;;14.70;6.60;;;19.90;99.90;;;;;;4988806;28;20219;-69
2022/08/29 04:06:09;;;;;;;11.90;6.67;;;19.90;99.90;;;;;;4987692;28;20722;-70
2022/08/29 04:08:37;;;;;;;12.40;6.50;;;19.90;99.90;;;;;;4982045;28;20293;-69
2022/08/29 04:11:09;;;;;;;14.67;6.57;;;19.90;99.90;;;;;;4983917;28;20262;-69
2022/08/29 04:13:37;;;;;;;12.43;5.90;;;20.00;99.90;;;;;;4988990;28;20602;-71
2022/08/29 04:16:12;;;;;;;19.37;6.60;;;20.00;99.90;;;;;;4988647;28;20334;-70
2022/08/29 04:18:39;;;;;;;14.27;6.83;;;20.00;99.90;;;;;;4969970;28;20280;-69
2022/08/29 04:21:07;;;;;;;12.43;6.20;;;20.00;99.90;;;;;;4969381;28;20307;-72
2022/08/29 04:23:36;;;;;;;14.73;7.67;;;20.10;99.90;;;;;;4972404;28;20243;-68
2022/08/29 04:26:04;;;;;;;11.93;6.37;;;20.10;99.90;;;;;;4972664;28;20251;-70
2022/08/29 04:28:31;;;;;;;16.40;6.03;;;20.10;99.90;;;;;;4990918;28;20268;-69
2022/08/29 04:30:59;;;;;;;12.93;6.17;;;20.20;99.90;;;;;;4992095;28;20233;-71
2022/08/29 04:33:26;;;;;;;12.20;6.33;;;20.20;99.90;;;;;;4992287;28;20211;-70
2022/08/29 04:35:53;;;;;;;13.83;6.03;;;20.30;99.90;;;;;;4991873;28;20314;-69
2022/08/29 04:38:20;;;;;;;16.10;8.80;;;20.30;99.90;;;;;;4985715;28;20203;-70
2022/08/29 04:40:48;;;;;;;14.90;9.37;;;20.30;99.90;;;;;;4991585;28;20305;-70
2022/08/29 04:43:14;;;;;;;12.90;6.90;;;20.30;99.90;;;;;;4991258;28;20209;-71
2022/08/29 04:45:42;;;;;;;10.77;6.20;;;20.40;99.90;;;;;;4990915;28;20250;-72
2022/08/29 04:48:10;;;;;;;10.33;6.27;;;20.40;99.90;;;;;;4988837;28;20277;-71
2022/08/29 04:50:38;;;;;;;12.97;6.67;;;20.50;99.90;;;;;;4997894;28;20228;-69
2022/08/29 04:53:05;;;;;;;16.53;7.00;;;20.50;99.90;;;;;;5002220;28;20229;-70
2022/08/29 04:55:32;;;;;;;16.87;7.23;;;20.60;99.90;;;;;;4991614;28;20626;-70
2022/08/29 04:57:58;;;;;;;10.73;6.20;;;20.60;99.90;;;;;;4991379;28;20225;-69
2022/08/29 05:00:28;;;;;;;12.43;7.00;;;20.70;99.90;;;;;;4991469;28;20214;-69
2022/08/29 05:02:55;;;;;;;13.23;6.87;;;20.70;99.90;;;;;;5003058;28;20211;-70
2022/08/29 05:05:24;;;;;;;12.40;7.50;;;20.80;99.90;;;;;;5009869;28;20724;-69
2022/08/29 05:07:51;;;;;;;12.30;7.23;;;20.90;99.90;;;;;;4991348;28;20209;-70
2022/08/29 05:10:21;;;;;;;13.73;7.60;;;20.90;99.90;;;;;;4991587;28;20527;-70
2022/08/29 05:12:48;;;;;;;15.03;8.30;;;21.00;99.90;;;;;;4991402;28;20308;-70
2022/08/29 05:15:16;;;;;;;16.77;7.93;;;21.00;99.90;;;;;;4991671;28;20212;-69
2022/08/29 05:17:44;;;;;;;13.47;8.43;;;21.10;99.90;;;;;;4990916;28;20207;-70
2022/08/29 05:20:12;;;;;;;14.20;8.70;;;21.20;99.90;;;;;;4991682;28;20270;-70
2022/08/29 05:22:41;;;;;;;12.87;8.20;;;21.20;99.90;;;;;;4992256;28;20302;-69
2022/08/29 05:25:10;;;;;;;15.87;8.97;;;21.30;99.90;;;;;;4971962;28;20208;-72
2022/08/29 05:27:39;;;;;;;17.77;9.10;;;21.30;99.90;;;;;;4971316;28;20257;-69
2022/08/29 05:30:08;;;;;;;17.67;9.60;;;21.40;99.90;;;;;;4971265;28;20212;-70
2022/08/29 05:32:35;;;;;;;20.20;10.07;;;21.40;99.90;;;;;;4970642;28;20223;-70
2022/08/29 05:35:03;;;;;;;18.13;10.10;;;21.50;99.90;;;;;;4971028;28;20299;-69
2022/08/29 05:37:30;;;;;;;30.07;13.07;;;21.50;99.90;;;;;;5004714;28;20207;-69
2022/08/29 05:39:58;;;;;;;21.80;12.27;;;21.50;99.90;;;;;;5010790;28;20238;-69
2022/08/29 05:42:26;;;;;;;19.43;10.93;;;21.60;99.90;;;;;;5005043;28;20682;-69
2022/08/29 05:44:53;;;;;;;21.37;11.50;;;21.50;99.90;;;;;;4990824;28;20214;-72
2022/08/29 05:47:21;;;;;;;22.77;10.97;;;21.60;99.90;;;;;;4996977;28;20317;-70
2022/08/29 05:49:49;;;;;;;20.07;11.43;;;21.60;99.90;;;;;;4983183;28;20674;-71
2022/08/29 05:52:18;;;;;;;21.90;12.13;;;21.70;99.90;;;;;;4984412;28;20247;-69
2022/08/29 05:54:46;;;;;;;23.03;12.13;;;21.70;99.90;;;;;;4970694;28;20220;-71
2022/08/29 05:57:16;;;;;;;20.80;11.90;;;21.80;99.90;;;;;;4988583;28;20203;-69
2022/08/29 05:59:43;;;;;;;21.07;11.13;;;21.80;99.90;;;;;;4989677;28;20299;-71
2022/08/29 06:02:10;;;;;;;22.33;11.77;;;21.90;99.90;;;;;;4990839;28;20215;-70
2022/08/29 06:04:38;;;;;;;21.67;12.17;;;21.90;99.90;;;;;;4990016;28;20327;-72
2022/08/29 06:07:06;;;;;;;19.73;10.67;;;22.00;99.90;;;;;;4989648;28;20216;-70
2022/08/29 06:09:33;;;;;;;21.20;11.77;;;22.00;99.90;;;;;;4988897;28;20260;-70
2022/08/29 06:12:01;;;;;;;21.57;11.37;;;22.10;99.90;;;;;;4973852;28;20311;-76
2022/08/29 06:14:30;;;;;;;21.07;11.40;;;22.20;99.90;;;;;;4972368;28;20572;-73
2022/08/29 06:16:56;;;;;;;17.47;11.27;;;22.30;99.90;;;;;;4973015;28;20321;-73
2022/08/29 06:19:24;;;;;;;18.87;10.90;;;22.40;99.90;;;;;;4990337;28;20246;-70
2022/08/29 06:21:51;;;;;;;16.00;10.80;;;22.40;99.90;;;;;;4992068;28;20291;-69
2022/08/29 06:24:18;;;;;;;22.33;11.87;;;22.50;99.90;;;;;;4990411;28;20204;-71
2022/08/29 06:26:45;;;;;;;19.30;11.37;;;22.60;99.90;;;;;;4990658;28;20306;-70
2022/08/29 06:29:13;;;;;;;23.63;13.77;;;22.70;99.90;;;;;;4989115;28;20300;-69
2022/08/29 06:31:42;;;;;;;18.33;11.70;;;22.80;99.90;;;;;;4987028;28;20592;-71
2022/08/29 06:34:09;;;;;;;39.87;15.60;;;22.90;99.90;;;;;;4990998;28;20215;-69
2022/08/29 06:36:36;;;;;;;21.70;12.13;;;22.90;99.90;;;;;;4990734;28;20636;-70
2022/08/29 06:39:06;;;;;;;22.13;11.63;;;23.00;99.90;;;;;;4990242;28;20227;-71
2022/08/29 06:41:35;;;;;;;22.83;11.80;;;23.10;99.90;;;;;;4985911;28;20667;-70
2022/08/29 06:44:02;;;;;;;20.87;11.53;;;23.20;99.90;;;;;;4989864;28;20219;-68
2022/08/29 06:46:32;;;;;;;19.03;10.90;;;23.30;99.90;;;;;;4996022;28;20640;-78
2022/08/29 06:49:03;;;;;;;23.37;12.10;;;23.30;99.90;;;;;;4997657;28;20233;-69
2022/08/29 06:51:33;;;;;;;17.27;10.97;;;23.40;99.90;;;;;;4997856;28;20305;-72
2022/08/29 06:54:00;;;;;;;19.33;11.93;;;23.50;99.90;;;;;;4996079;28;20612;-77
2022/08/29 06:56:31;;;;;;;16.80;11.10;;;23.60;99.90;;;;;;4997086;28;20220;-78
2022/08/29 06:58:58;;;;;;;18.37;11.27;;;23.70;99.90;;;;;;4993633;28;20230;-71
2022/08/29 07:01:26;;;;;;;18.30;10.97;;;23.80;99.90;;;;;;4993991;28;20209;-71
2022/08/29 07:03:55;;;;;;;20.00;11.80;;;23.90;99.90;;;;;;4994699;28;20214;-78
2022/08/29 07:06:25;;;;;;;19.33;11.40;;;23.90;99.90;;;;;;4997907;28;20241;-70
2022/08/29 07:08:53;;;;;;;17.80;11.30;;;24.10;99.90;;;;;;4994665;28;20259;-70
2022/08/29 07:11:20;;;;;;;16.13;10.77;;;24.10;99.90;;;;;;4996816;28;20473;-78
2022/08/29 07:13:48;;;;;;;19.10;11.87;;;24.20;99.90;;;;;;4999854;28;20213;-74
2022/08/29 07:16:17;;;;;;;19.80;11.67;;;24.30;99.90;;;;;;4994131;28;20208;-68
2022/08/29 07:18:45;;;;;;;21.90;12.10;;;24.40;99.90;;;;;;4988621;28;20611;-70
2022/08/29 07:21:14;;;;;;;19.07;11.47;;;24.50;99.90;;;;;;4989547;28;20293;-71
2022/08/29 07:23:42;;;;;;;17.80;11.07;;;24.50;99.90;;;;;;4988156;28;20219;-71
2022/08/29 07:26:12;;;;;;;17.60;11.40;;;24.60;99.90;;;;;;4989433;28;20297;-73
2022/08/29 07:28:39;;;;;;;22.97;11.90;;;24.70;99.90;;;;;;4989621;28;20214;-69
2022/08/29 07:31:07;;;;;;;21.08;11.82;;;24.80;99.90;;;;;;4989470;28;20230;-70
2022/08/29 07:33:33;;;;;;;20.67;11.37;;;24.90;99.90;;;;;;4987252;28;20300;-70
2022/08/29 07:36:01;;;;;;;20.67;11.43;;;24.90;99.90;;;;;;4989165;28;20300;-70
2022/08/29 07:38:29;;;;;;;17.60;12.10;;;25.00;99.90;;;;;;4990505;28;20311;-70
2022/08/29 07:41:01;;;;;;;17.70;12.25;;;25.10;99.90;;;;;;4989551;28;20214;-70
2022/08/29 07:43:28;;;;;;;18.37;11.93;;;25.20;99.90;;;;;;4988443;28;20588;-70
2022/08/29 07:45:55;;;;;;;17.48;11.32;;;25.30;99.90;;;;;;4984602;28;20217;-71
2022/08/29 07:48:23;;;;;;;19.30;11.73;;;25.30;99.90;;;;;;4989060;28;20327;-70
2022/08/29 07:50:50;;;;;;;19.02;11.48;;;25.40;99.90;;;;;;4988736;28;20266;-69
2022/08/29 07:53:18;;;;;;;16.90;11.70;;;25.50;99.90;;;;;;4988848;28;20701;-71
2022/08/29 07:55:45;;;;;;;16.90;10.25;;;25.50;99.90;;;;;;4986841;28;20214;-70
2022/08/29 07:58:13;;;;;;;19.63;10.93;;;25.60;99.90;;;;;;4992392;28;20300;-70
2022/08/29 08:00:40;;;;;;;16.95;10.82;;;25.70;99.90;;;;;;4992346;28;20249;-69
2022/08/29 08:03:07;;;;;;;20.08;11.13;;;25.80;99.90;;;;;;4992408;28;20291;-72
2022/08/29 08:05:34;;;;;;;21.35;11.52;;;25.90;99.90;;;;;;4990285;28;20266;-69
2022/08/29 08:08:01;;;;;;;18.55;10.95;;;25.90;99.90;;;;;;4992361;28;20269;-70
2022/08/29 08:10:28;;;;;;;16.00;11.25;;;26.00;99.90;;;;;;4992377;28;20256;-71
2022/08/29 08:12:55;;;;;;;18.20;10.70;;;26.10;99.90;;;;;;4991918;28;20231;-70
2022/08/29 08:15:23;;;;;;;21.85;11.35;;;26.20;99.90;;;;;;4990326;28;20209;-70
2022/08/29 08:17:50;;;;;;;18.58;10.25;;;26.30;99.90;;;;;;4989335;28;20297;-70
2022/08/29 08:20:17;;;;;;;16.42;10.63;;;26.30;99.90;;;;;;4984453;28;20646;-73
2022/08/29 08:22:45;;;;;;;16.52;10.40;;;26.40;99.90;;;;;;4986458;28;20264;-69
2022/08/29 08:25:12;;;;;;;19.67;10.25;;;26.40;99.90;;;;;;4985797;28;20295;-71
2022/08/29 08:27:39;;;;;;;18.92;10.85;;;26.50;99.90;;;;;;4988775;28;20624;-69
2022/08/29 08:30:08;;;;;;;19.90;11.15;;;26.60;99.90;;;;;;4994694;28;20288;-69
2022/08/29 08:32:36;;;;;;;16.77;9.70;;;26.70;99.90;;;;;;4992219;28;20225;-72
2022/08/29 08:35:03;;;;;;;14.75;9.23;;;26.80;99.90;;;;;;4991844;28;20652;-70
2022/08/29 08:37:33;;;;;;;17.08;9.30;;;26.90;99.90;;;;;;4992219;28;20207;-78
2022/08/29 08:40:00;;;;;;;16.67;9.50;;;27.00;99.90;;;;;;4991936;28;20216;-69
2022/08/29 08:42:38;;;;;;;14.93;9.43;;;27.10;99.90;;;;;;4992069;28;20300;-70
2022/08/29 08:45:09;;;;;;;15.18;8.50;;;27.10;99.90;;;;;;4985246;28;20220;-69
2022/08/29 08:47:42;;;;;;;15.68;8.70;;;27.20;99.90;;;;;;4991471;28;20335;-72
2022/08/29 08:50:16;;;;;;;15.23;8.27;;;27.30;99.90;;;;;;5003568;28;20264;-71
2022/08/29 08:52:47;;;;;;;12.90;8.00;;;27.40;99.90;;;;;;4991790;28;20215;-73
2022/08/29 08:55:27;;;;;;;16.42;8.18;;;27.50;99.80;;;;;;4992389;28;20201;-72
2022/08/29 08:58:02;;;;;;;14.43;8.02;;;27.60;99.20;;;;;;4992169;28;20568;-72
2022/08/29 09:00:35;;;;;;;14.68;8.07;;;27.70;98.60;;;;;;4999980;28;20207;-72
2022/08/29 09:03:13;;;;;;;13.13;8.27;;;27.80;98.50;;;;;;5011669;28;20623;-71
2022/08/29 09:05:53;;;;;;;13.35;7.40;;;27.80;98.40;;;;;;5011711;28;20251;-70
2022/08/29 09:08:30;;;;;;;14.23;8.02;;;27.90;97.50;;;;;;4991669;28;20204;-70
2022/08/29 09:11:03;;;;;;;12.50;7.50;;;28.00;97.80;;;;;;4991893;28;20200;-71
2022/08/29 09:13:46;;;;;;;13.32;7.40;;;28.10;97.80;;;;;;4990661;28;20604;-73
2022/08/29 09:16:22;;;;;;;13.75;7.85;;;28.20;97.00;;;;;;4985574;28;20229;-70
2022/08/29 09:18:50;;;;;;;15.35;8.27;;;28.20;96.60;;;;;;4991694;28;20285;-70
2022/08/29 09:21:20;;;;;;;15.05;8.00;;;28.30;96.60;;;;;;4991317;28;20242;-69
2022/08/29 09:23:48;;;;;;;12.18;7.80;;;28.40;96.50;;;;;;4986016;28;20302;-70
2022/08/29 09:26:18;;;;;;;18.73;8.45;;;28.50;96.30;;;;;;4998489;28;20465;-71
2022/08/29 09:28:45;;;;;;;13.27;7.57;;;28.50;96.10;;;;;;5010606;28;20315;-70
2022/08/29 09:31:23;;;;;;;13.68;7.93;;;28.50;95.60;;;;;;4996146;28;20273;-70
2022/08/29 09:33:54;;;;;;;15.05;7.70;;;28.60;95.70;;;;;;4992013;28;20296;-69
2022/08/29 09:36:38;;;;;;;11.68;7.93;;;28.60;95.40;;;;;;4991745;28;20198;-70
2022/08/29 09:39:18;;;;;;;11.27;7.43;;;28.70;95.50;;;;;;4991540;28;20210;-71
2022/08/29 09:41:48;;;;;;;13.20;8.18;;;28.70;95.50;;;;;;4992266;28;20237;-70
2022/08/29 09:44:20;;;;;;;16.00;8.27;;;28.70;95.60;;;;;;5010371;28;20308;-69
2022/08/29 09:46:47;;;;;;;11.57;7.85;;;28.70;95.00;;;;;;5010562;28;20337;-70
2022/08/29 09:49:17;;;;;;;11.55;7.28;;;28.80;95.20;;;;;;5010561;28;20623;-70
2022/08/29 09:51:47;;;;;;;15.07;7.55;;;28.90;94.90;;;;;;5000253;28;20219;-70
2022/08/29 09:54:24;;;;;;;13.48;7.85;;;29.00;94.50;;;;;;4991100;28;20207;-70
2022/08/29 09:56:54;;;;;;;11.60;6.97;;;29.00;94.40;;;;;;4989815;28;20211;-70
2022/08/29 09:59:26;;;;;;;10.52;6.95;;;29.10;94.20;;;;;;4989307;28;20202;-71
2022/08/29 10:02:10;;;;;;;12.40;7.57;;;29.10;94.30;;;;;;4995930;28;20278;-71
2022/08/29 10:04:41;;;;;;;11.52;7.25;;;29.20;94.10;;;;;;4989008;28;20290;-70
2022/08/29 10:07:10;;;;;;;13.02;7.68;;;29.20;94.20;;;;;;4991047;28;20627;-72
2022/08/29 10:09:37;;;;;;;14.45;7.53;;;29.20;94.00;;;;;;4981767;28;20211;-73
2022/08/29 10:12:09;;;;;;;18.33;8.18;;;29.30;94.00;;;;;;4978123;28;20321;-72
2022/08/29 10:14:40;;;;;;;17.80;7.93;;;29.40;93.90;;;;;;4971172;28;20287;-71
2022/08/29 10:20:04;;;;;;;11.32;6.95;;;29.40;92.20;;;;;;4989206;28;20198;-70
2022/08/29 10:22:38;;;;;;;13.57;7.38;;;29.40;92.70;;;;;;4988629;28;20191;-69
2022/08/29 10:25:13;;;;;;;11.95;6.95;;;29.60;93.10;;;;;;4992348;28;20211;-67
2022/08/29 10:27:45;;;;;;;16.35;7.85;;;29.70;93.00;;;;;;4970631;28;20187;-71
2022/08/29 10:30:16;;;;;;;12.90;7.25;;;29.70;91.30;;;;;;4971169;28;20323;-72
2022/08/29 10:33:09;;;;;;;11.35;6.78;;;29.80;91.60;;;;;;4970975;28;20303;-69
2022/08/29 10:35:47;;;;;;;13.98;6.65;;;29.80;91.90;;;;;;4971128;28;20192;-68
2022/08/29 10:38:22;;;;;;;13.55;7.20;;;29.80;91.80;;;;;;4970935;28;20553;-70
2022/08/29 10:40:53;;;;;;;11.30;6.65;;;29.80;91.80;;;;;;4970724;28;20553;-70
2022/08/29 10:43:36;;;;;;;12.80;6.70;;;29.80;91.80;;;;;;4986723;28;20207;-70
2022/08/29 10:46:30;;;;;;;12.45;7.00;;;29.80;92.20;;;;;;4990310;28;20280;-69
2022/08/29 10:49:05;;;;;;;12.30;6.88;;;29.90;92.30;;;;;;4990240;28;20646;-72
2022/08/29 10:51:42;;;;;;;13.70;6.93;;;29.90;91.60;;;;;;4988523;28;20679;-70
2022/08/29 10:54:19;;;;;;;9.98;5.82;;;30.00;91.20;;;;;;4990082;28;20258;-71
2022/08/29 10:56:49;;;;;;;11.75;6.65;;;30.00;90.60;;;;;;4988823;28;20217;-69
2022/08/29 10:59:23;;;;;;;12.55;6.47;;;30.00;90.70;;;;;;4988999;28;20716;-71
2022/08/29 11:01:57;;;;;;;13.82;6.53;;;30.00;90.70;;;;;;4970457;28;20188;-71
2022/08/29 11:04:28;;;;;;;11.20;6.68;;;30.10;90.80;;;;;;4975350;28;20292;-69
2022/08/29 11:07:04;;;;;;;12.32;7.30;;;30.10;90.90;;;;;;4989409;28;20276;-69
2022/08/29 11:09:36;;;;;;;12.50;6.80;;;30.20;91.20;;;;;;4988838;28;20210;-70
2022/08/29 11:12:10;;;;;;;13.95;7.35;;;30.20;91.20;;;;;;4987696;28;20303;-73
2022/08/29 11:14:42;;;;;;;10.65;6.75;;;30.20;90.60;;;;;;4990619;28;20277;-69
2022/08/29 11:17:14;;;;;;;10.30;7.53;;;30.10;90.80;;;;;;4989967;28;20195;-72
2022/08/29 11:19:55;;;;;;;11.50;7.03;;;30.10;90.80;;;;;;4990078;28;20226;-70
2022/08/29 11:22:26;;;;;;;9.90;6.55;;;30.10;90.90;;;;;;4988739;28;20286;-68
2022/08/29 11:25:01;;;;;;;11.25;6.85;;;30.10;90.80;;;;;;4989634;28;20290;-73
2022/08/29 11:27:36;;;;;;;9.23;6.25;;;30.10;90.90;;;;;;4991674;28;20286;-69
2022/08/29 11:30:07;;;;;;;9.65;6.43;;;30.10;91.20;;;;;;4989702;28;20217;-69
2022/08/29 11:32:44;;;;;;;12.55;6.43;;;30.10;91.10;;;;;;4992138;28;20570;-68
2022/08/29 11:35:19;;;;;;;11.43;6.65;;;30.10;91.00;;;;;;4973511;28;20196;-69
2022/08/29 11:38:07;;;;;;;9.45;6.50;;;30.20;91.10;;;;;;4973719;28;20227;-70
2022/08/29 11:40:45;;;;;;;9.43;6.20;;;30.20;91.40;;;;;;4973857;28;20248;-68
2022/08/29 11:43:15;;;;;;;10.95;6.35;;;30.30;91.40;;;;;;4973743;28;20188;-71
2022/08/29 11:45:43;;;;;;;13.60;6.50;;;30.30;91.60;;;;;;4991563;28;20216;-70
2022/08/29 11:48:31;;;;;;;12.55;6.18;;;30.40;91.40;;;;;;5012386;28;20329;-69
2022/08/29 11:50:59;;;;;;;11.48;5.78;;;30.40;90.80;;;;;;4999546;28;20212;-69
2022/08/29 11:53:33;;;;;;;15.68;6.18;;;30.30;90.80;;;;;;5007032;28;20230;-69
2022/08/29 11:56:21;;;;;;;10.50;5.93;;;30.30;90.80;;;;;;5012569;28;20201;-71
2022/08/29 11:58:49;;;;;;;15.77;6.43;;;30.30;91.10;;;;;;5012472;28;20206;-69
2022/08/29 12:01:49;;;;;;;11.77;6.10;;;30.30;91.30;;;;;;5021406;28;20270;-70
2022/08/29 12:04:54;;;;;;;13.63;6.03;;;30.30;91.10;;;;;;5047593;28;20213;-70
2022/08/29 12:07:32;;;;;;;11.82;6.50;;;30.40;91.40;;;;;;5005519;28;20672;-70
2022/08/29 12:10:03;;;;;;;16.20;6.50;;;30.40;91.50;;;;;;4993115;28;20191;-70
2022/08/29 12:12:44;;;;;;;14.27;6.65;;;30.40;91.20;;;;;;4992858;28;20218;-70
2022/08/29 12:15:48;;;;;;;12.98;6.03;;;30.50;91.20;;;;;;4990256;28;20608;-71
2022/08/29 12:18:44;;;;;;;16.50;6.15;;;30.50;91.40;;;;;;4981750;28;20199;-70
2022/08/29 12:21:44;;;;;;;11.25;5.80;;;30.50;91.20;;;;;;5010280;28;20645;-70
2022/08/29 12:24:30;;;;;;;8.95;5.50;;;30.60;91.00;;;;;;5011381;28;20202;-71
2022/08/29 12:26:58;;;;;;;12.20;5.72;;;30.70;91.10;;;;;;5012167;28;20301;-70
2022/08/29 12:29:29;;;;;;;11.43;6.00;;;30.70;90.80;;;;;;5012354;28;20634;-71
2022/08/29 12:32:16;;;;;;;10.30;5.70;;;30.70;91.10;;;;;;5011560;28;20187;-72
2022/08/29 12:35:01;;;;;;;14.30;5.55;;;30.70;90.70;;;;;;5011986;28;20545;-72
2022/08/29 12:37:49;;;;;;;9.90;5.45;;;30.70;90.90;;;;;;4993903;28;20199;-70
2022/08/29 12:40:34;;;;;;;7.72;4.55;;;30.80;91.20;;;;;;4992715;28;20278;-72
2022/08/29 12:43:41;;;;;;;9.70;5.32;;;30.80;91.20;;;;;;4972263;28;20386;-70
2022/08/29 12:46:14;;;;;;;11.77;5.82;;;30.90;91.00;;;;;;4976964;28;20651;-69
2022/08/29 12:48:47;;;;;;;9.68;5.40;;;30.90;91.10;;;;;;4972656;28;20559;-71
2022/08/29 12:51:32;;;;;;;11.15;5.18;;;31.00;91.00;;;;;;4993697;28;20630;-70
2022/08/29 12:53:59;;;;;;;15.85;5.13;;;31.00;90.60;;;;;;5012642;28;20702;-71
2022/08/29 12:56:26;;;;;;;12.70;5.30;;;31.00;90.40;;;;;;5011332;28;20739;-73
2022/08/29 12:58:56;;;;;;;11.63;5.50;;;31.00;90.30;;;;;;4999821;28;20215;-71